createdAt,value
2023-03-10T00:00:06.608Z,92959.78
2023-03-10T00:03:10.328Z,92966.50
2023-03-10T00:06:17.256Z,92980.69
2023-03-10T00:09:20.386Z,92994.28
2023-03-10T00:12:24.087Z,92987.06
2023-03-10T00:15:28.338Z,92985.06
2023-03-10T00:18:32.371Z,93001.81
2023-03-10T00:21:36.039Z,92995.03
2023-03-10T00:24:39.906Z,92998.50
2023-03-10T00:27:43.788Z,92997.06
2023-03-10T00:30:58.323Z,93002.69
2023-03-10T00:34:01.521Z,93017.09
2023-03-10T00:37:05.586Z,93021.28
2023-03-10T00:40:11.577Z,93021.66
2023-03-10T00:43:15.030Z,93032.56
2023-03-10T00:46:18.314Z,93041.94
2023-03-10T00:49:21.728Z,93054.63
2023-03-10T00:52:25.505Z,93054.66
2023-03-10T00:55:29.471Z,93059.13
2023-03-10T00:58:33.399Z,93057.41
2023-03-10T01:01:40.834Z,93057.84
2023-03-10T01:04:44.687Z,93072.22
2023-03-10T01:07:49.049Z,93057.47
2023-03-10T01:10:52.191Z,93068.94
2023-03-10T01:14:01.980Z,93072.97
2023-03-10T01:17:06.068Z,93088.31
2023-03-10T01:20:14.650Z,93072.22
2023-03-10T01:23:22.436Z,93074.06
2023-03-10T01:26:26.342Z,93086.88
2023-03-10T01:29:29.380Z,93088.63
2023-03-10T01:32:33.615Z,93078.06
2023-03-10T01:35:37.822Z,93068.53
2023-03-10T01:38:41.545Z,93078.84
2023-03-10T01:41:45.191Z,93090.06
2023-03-10T01:45:09.390Z,93094.84
2023-03-10T01:48:16.143Z,93105.00
2023-03-10T01:51:20.042Z,93116.03
2023-03-10T01:54:29.158Z,93113.44
2023-03-10T01:57:38.542Z,93108.63
2023-03-10T02:00:43.553Z,93115.63
2023-03-10T02:04:04.491Z,93118.53
2023-03-10T02:07:08.986Z,93130.72
2023-03-10T02:10:15.042Z,93141.19
2023-03-10T02:13:19.259Z,93138.25
2023-03-10T02:16:25.096Z,93131.25
2023-03-10T02:19:43.800Z,93130.91
2023-03-10T02:22:49.213Z,93148.09
2023-03-10T02:26:00.421Z,93141.50
2023-03-10T02:29:07.470Z,93139.47
2023-03-10T02:32:13.176Z,93140.41
2023-03-10T02:35:18.189Z,93138.19
2023-03-10T02:38:30.805Z,93119.50
2023-03-10T02:41:39.759Z,93136.03
2023-03-10T02:44:49.956Z,93125.41
2023-03-10T02:47:54.538Z,93116.81
2023-03-10T02:50:59.960Z,93122.50
2023-03-10T02:54:04.441Z,93117.81
2023-03-10T02:57:08.430Z,93116.81
2023-03-10T03:00:13.275Z,93130.13
2023-03-10T03:03:18.957Z,93124.06
2023-03-10T03:06:22.854Z,93136.81
2023-03-10T03:09:26.098Z,93150.59
2023-03-10T03:12:29.612Z,93146.13
2023-03-10T03:15:34.294Z,93127.97
2023-03-10T03:18:39.085Z,93144.38
2023-03-10T03:21:50.419Z,93132.78
2023-03-10T03:24:54.630Z,93130.47
2023-03-10T03:27:58.508Z,93132.00
2023-03-10T03:31:02.930Z,93125.66
2023-03-10T03:34:07.829Z,93150.00
2023-03-10T03:37:11.301Z,93138.13
2023-03-10T03:40:16.130Z,93154.88
2023-03-10T03:43:22.764Z,93138.09
2023-03-10T03:46:25.992Z,93152.88
2023-03-10T03:49:29.347Z,93143.81
2023-03-10T03:52:33.647Z,93138.88
2023-03-10T03:55:37.821Z,93134.94
2023-03-10T03:58:42.130Z,93152.41
2023-03-10T04:01:45.510Z,93141.47
2023-03-10T04:04:50.307Z,93152.53
2023-03-10T04:07:53.536Z,93143.38
2023-03-10T04:10:58.244Z,93139.56
2023-03-10T04:14:04.722Z,93143.06
2023-03-10T04:17:12.133Z,93141.97
2023-03-10T04:20:16.805Z,93162.81
2023-03-10T04:23:24.146Z,93145.75
2023-03-10T04:26:27.923Z,93131.03
2023-03-10T04:29:31.342Z,93135.56
2023-03-10T04:32:35.814Z,93142.72
2023-03-10T04:35:42.582Z,93129.03
2023-03-10T04:38:47.831Z,93131.22
2023-03-10T04:41:51.403Z,93140.19
2023-03-10T04:44:56.141Z,93155.56
2023-03-10T04:48:00.256Z,93142.75
2023-03-10T04:51:07.583Z,93155.50
2023-03-10T04:54:16.303Z,93146.97
2023-03-10T04:57:19.302Z,93133.97
2023-03-10T05:00:22.729Z,93165.09
2023-03-10T05:03:29.204Z,93141.66
2023-03-10T05:06:33.155Z,93141.50
2023-03-10T05:09:58.587Z,93136.28
2023-03-10T05:13:03.734Z,93147.66
2023-03-10T05:16:19.661Z,93149.44
2023-03-10T05:19:24.222Z,93140.44
2023-03-10T05:22:29.680Z,93145.41
2023-03-10T05:25:34.453Z,93148.84
2023-03-10T05:28:38.079Z,93137.72
2023-03-10T05:31:42.780Z,93123.84
2023-03-10T05:34:52.511Z,93146.22
2023-03-10T05:37:55.564Z,93140.13
2023-03-10T05:40:59.933Z,93141.16
2023-03-10T05:44:03.942Z,93124.56
2023-03-10T05:47:09.630Z,93135.56
2023-03-10T05:50:17.357Z,93131.50
2023-03-10T05:53:21.181Z,93126.91
2023-03-10T05:56:24.706Z,93104.06
2023-03-10T05:59:32.324Z,93136.81
2023-03-10T06:02:36.065Z,93140.94
2023-03-10T06:05:39.756Z,93143.53
2023-03-10T06:08:44.062Z,93152.06
2023-03-10T06:11:47.897Z,93139.28
2023-03-10T06:14:51.722Z,93145.31
2023-03-10T06:17:54.742Z,93157.94
2023-03-10T06:20:59.086Z,93170.63
2023-03-10T06:24:02.270Z,93162.28
2023-03-10T06:27:05.701Z,93156.91
2023-03-10T06:30:08.989Z,93172.56
2023-03-10T06:33:12.286Z,93185.00
2023-03-10T06:36:17.081Z,93181.09
2023-03-10T06:39:20.133Z,93181.13
2023-03-10T06:42:23.165Z,93190.47
2023-03-10T06:45:27.182Z,93194.16
2023-03-10T06:48:31.060Z,93176.59
2023-03-10T06:51:34.490Z,93228.91
2023-03-10T06:54:38.209Z,93234.53
2023-03-10T06:57:42.084Z,93204.06
2023-03-10T07:00:45.757Z,93205.34
2023-03-10T07:03:49.497Z,93220.13
2023-03-10T07:06:52.687Z,93219.97
2023-03-10T07:09:58.358Z,93217.34
2023-03-10T07:13:03.499Z,93228.00
2023-03-10T07:16:07.228Z,93246.19
2023-03-10T07:19:10.392Z,93237.91
2023-03-10T07:22:14.712Z,93241.31
2023-03-10T07:25:18.728Z,93258.97
2023-03-10T07:28:22.090Z,93267.31
2023-03-10T07:31:26.310Z,93269.50
2023-03-10T07:34:30.092Z,93271.13
2023-03-10T07:37:33.153Z,93286.81
2023-03-10T07:40:37.250Z,93281.44
2023-03-10T07:43:40.567Z,93285.13
2023-03-10T07:46:44.171Z,93287.84
2023-03-10T07:49:47.770Z,93283.91
2023-03-10T07:52:50.976Z,93303.16
2023-03-10T07:55:54.156Z,93295.91
2023-03-10T07:59:00.492Z,93296.13
2023-03-10T08:02:03.489Z,93300.63
2023-03-10T08:05:07.297Z,93300.84
2023-03-10T08:08:11.191Z,93297.16
2023-03-10T08:11:15.079Z,93305.38
2023-03-10T08:14:20.978Z,93284.75
2023-03-10T08:17:31.144Z,93297.69
2023-03-10T08:20:36.949Z,93295.19
2023-03-10T08:23:40.839Z,93296.81
2023-03-10T08:26:44.953Z,93306.91
2023-03-10T08:29:48.766Z,93330.41
2023-03-10T08:32:52.440Z,93310.06
2023-03-10T08:36:24.070Z,93301.75
2023-03-10T08:39:29.162Z,93336.25
2023-03-10T08:42:32.781Z,93327.19
2023-03-10T08:45:36.204Z,93317.88
2023-03-10T08:48:42.733Z,93338.63
2023-03-10T08:51:47.148Z,93335.13
2023-03-10T08:54:50.245Z,93346.72
2023-03-10T08:57:54.626Z,93361.25
2023-03-10T09:00:58.672Z,93359.28
2023-03-10T09:04:03.728Z,93381.03
2023-03-10T09:07:07.928Z,93373.13
2023-03-10T09:10:11.884Z,93376.91
2023-03-10T09:13:15.622Z,93385.78
2023-03-10T09:16:19.574Z,93382.16
2023-03-10T09:19:22.792Z,93397.31
2023-03-10T09:22:26.742Z,93402.25
2023-03-10T09:25:30.684Z,93420.91
2023-03-10T09:28:34.589Z,93406.72
2023-03-10T09:31:39.909Z,93416.56
2023-03-10T09:34:45.998Z,93409.38
2023-03-10T09:37:49.940Z,93427.06
2023-03-10T09:41:06.212Z,93441.31
2023-03-10T09:44:25.787Z,93434.19
2023-03-10T09:47:34.385Z,93458.91
2023-03-10T09:50:57.128Z,93465.81
2023-03-10T09:54:34.674Z,93486.88
2023-03-10T09:57:38.331Z,93475.00
2023-03-10T10:00:44.530Z,93478.25
2023-03-10T10:03:54.998Z,93486.00
2023-03-10T10:06:59.074Z,93488.69
2023-03-10T10:10:25.808Z,93494.97
2023-03-10T10:13:31.565Z,93507.00
2023-03-10T10:16:59.411Z,93520.28
2023-03-10T10:20:07.537Z,93524.56
2023-03-10T10:23:31.560Z,93513.94
2023-03-10T10:26:35.368Z,93545.81
2023-03-10T10:29:42.882Z,93537.88
2023-03-10T10:32:58.418Z,93546.75
2023-03-10T10:36:06.444Z,93563.97
2023-03-10T10:39:22.532Z,93574.53
2023-03-10T10:42:32.045Z,93599.66
2023-03-10T10:45:40.800Z,93572.94
2023-03-10T10:48:46.668Z,93602.19
2023-03-10T10:52:05.577Z,93602.38
2023-03-10T10:55:28.881Z,93620.88
2023-03-10T10:58:37.943Z,93628.03
2023-03-10T11:02:01.296Z,93655.78
2023-03-10T11:05:13.898Z,93649.56
2023-03-10T11:08:19.711Z,93658.91
2023-03-10T11:11:29.981Z,93677.56
2023-03-10T11:14:57.732Z,93683.22
2023-03-10T11:18:19.846Z,93680.75
2023-03-10T11:21:35.212Z,93693.06
2023-03-10T11:24:55.618Z,93700.94
2023-03-10T11:28:17.219Z,93689.53
2023-03-10T11:31:52.280Z,93700.72
2023-03-10T11:34:59.052Z,93713.16
2023-03-10T11:38:29.770Z,93706.97
2023-03-10T11:41:40.652Z,93728.09
2023-03-10T11:44:57.018Z,93725.94
2023-03-10T11:48:21.287Z,93733.88
2023-03-10T11:51:46.170Z,93734.41
2023-03-10T11:54:59.317Z,93758.47
2023-03-10T11:58:05.731Z,93752.19
2023-03-10T12:01:14.173Z,93747.44
2023-03-10T12:04:17.216Z,93758.91
2023-03-10T12:07:40.343Z,93763.72
2023-03-10T12:10:44.239Z,93768.97
2023-03-10T12:13:52.738Z,93763.91
2023-03-10T12:16:56.741Z,93782.13
2023-03-10T12:20:26.012Z,93771.25
2023-03-10T12:23:28.903Z,93787.69
2023-03-10T12:26:39.464Z,93780.34
2023-03-10T12:29:44.745Z,93784.84
2023-03-10T12:32:49.364Z,93790.22
2023-03-10T12:35:56.277Z,93807.34
2023-03-10T12:39:01.329Z,93802.56
2023-03-10T12:42:06.640Z,93820.00
2023-03-10T12:45:18.122Z,93814.47
2023-03-10T12:48:23.124Z,93831.91
2023-03-10T12:51:29.693Z,93830.09
2023-03-10T12:55:03.761Z,93851.78
2023-03-10T12:58:20.141Z,93851.88
2023-03-10T13:01:31.525Z,93855.44
2023-03-10T13:04:36.361Z,93842.38
2023-03-10T13:07:48.477Z,93846.91
2023-03-10T13:11:00.245Z,93857.28
2023-03-10T13:14:22.227Z,93867.06
2023-03-10T13:17:32.574Z,93872.94
2023-03-10T13:20:37.724Z,93877.44
2023-03-10T13:23:44.350Z,93871.47
2023-03-10T13:26:47.474Z,93880.28
2023-03-10T13:30:14.828Z,93890.47
2023-03-10T13:33:25.852Z,93876.00
2023-03-10T13:36:38.836Z,93892.75
2023-03-10T13:39:42.527Z,93882.31
2023-03-10T13:42:49.311Z,93887.28
2023-03-10T13:46:02.048Z,93874.66
2023-03-10T13:49:10.162Z,93875.88
2023-03-10T13:52:25.469Z,93875.31
2023-03-10T13:55:31.146Z,93866.22
2023-03-10T13:58:34.997Z,93869.78
2023-03-10T14:01:44.969Z,93877.19
2023-03-10T14:04:53.717Z,93885.25
2023-03-10T14:08:02.509Z,93885.56
2023-03-10T14:11:26.790Z,93882.69
2023-03-10T14:14:38.998Z,93901.03
2023-03-10T14:17:45.422Z,93889.47
2023-03-10T14:20:50.190Z,93906.81
2023-03-10T14:23:58.107Z,93910.50
2023-03-10T14:27:02.690Z,93911.69
2023-03-10T14:30:29.487Z,93910.16
2023-03-10T14:33:37.838Z,93896.81
2023-03-10T14:36:42.822Z,93902.50
2023-03-10T14:39:47.316Z,93900.81
2023-03-10T14:42:54.349Z,93897.59
2023-03-10T14:46:06.726Z,93903.66
2023-03-10T14:49:16.578Z,93907.03
2023-03-10T14:52:21.155Z,93892.69
2023-03-10T14:55:26.266Z,93893.84
2023-03-10T14:58:44.436Z,93889.88
2023-03-10T15:01:48.927Z,93907.97
2023-03-10T15:04:53.395Z,93902.59
2023-03-10T15:07:57.619Z,93892.78
2023-03-10T15:11:02.381Z,93888.38
2023-03-10T15:14:21.890Z,93898.94
2023-03-10T15:17:24.912Z,93884.66
2023-03-10T15:20:28.791Z,93882.38
2023-03-10T15:23:32.090Z,93871.06
2023-03-10T15:26:35.355Z,93872.75
2023-03-10T15:29:38.374Z,93872.53
2023-03-10T15:32:41.349Z,93869.28
2023-03-10T15:35:45.425Z,93867.81
2023-03-10T15:38:50.244Z,93886.31
2023-03-10T15:41:53.820Z,93895.97
2023-03-10T15:44:57.140Z,93901.63
2023-03-10T15:48:00.396Z,93897.16
2023-03-10T15:51:09.819Z,93904.19
2023-03-10T15:54:14.102Z,93907.72
2023-03-10T15:57:18.260Z,93902.81
2023-03-10T16:00:23.996Z,93929.03
2023-03-10T16:03:27.970Z,93928.09
2023-03-10T16:06:31.808Z,93935.34
2023-03-10T16:09:35.185Z,93934.88
2023-03-10T16:12:39.024Z,93928.31
2023-03-10T16:15:43.080Z,93941.03
2023-03-10T16:18:48.039Z,93942.44
2023-03-10T16:21:53.504Z,93939.84
2023-03-10T16:24:57.766Z,93927.91
2023-03-10T16:28:01.261Z,93947.81
2023-03-10T16:31:06.821Z,93948.56
2023-03-10T16:34:09.941Z,93953.25
2023-03-10T16:37:14.110Z,93953.25
2023-03-10T16:40:17.377Z,93964.25
2023-03-10T16:43:21.839Z,93967.03
2023-03-10T16:46:30.710Z,93967.78
2023-03-10T16:49:38.206Z,93972.44
2023-03-10T16:52:42.986Z,93969.63
2023-03-10T16:55:46.795Z,93987.44
2023-03-10T16:58:50.011Z,93988.84
2023-03-10T17:01:54.612Z,93991.91
2023-03-10T17:04:58.503Z,93979.50
2023-03-10T17:08:06.818Z,93981.81
2023-03-10T17:11:22.560Z,93992.13
2023-03-10T17:14:25.625Z,93989.34
2023-03-10T17:17:30.636Z,93996.81
2023-03-10T17:20:33.678Z,93983.69
2023-03-10T17:23:37.470Z,93982.78
2023-03-10T17:26:41.215Z,93971.28
2023-03-10T17:29:44.226Z,93967.75
2023-03-10T17:32:51.224Z,93967.53
2023-03-10T17:35:55.003Z,93959.81
2023-03-10T17:39:01.315Z,93963.31
2023-03-10T17:42:05.416Z,93954.41
2023-03-10T17:45:09.086Z,93949.75
2023-03-10T17:48:12.218Z,93951.84
2023-03-10T17:51:24.251Z,93957.41
2023-03-10T17:54:27.375Z,93962.09
2023-03-10T17:57:30.656Z,93963.97
2023-03-10T18:00:33.810Z,93968.59
2023-03-10T18:03:39.011Z,93979.16
2023-03-10T18:06:44.830Z,93966.72
2023-03-10T18:09:48.805Z,93970.25
2023-03-10T18:12:52.843Z,93970.00
2023-03-10T18:15:57.271Z,93967.94
2023-03-10T18:19:01.326Z,93970.03
2023-03-10T18:22:06.563Z,93977.25
2023-03-10T18:25:09.855Z,93985.66
2023-03-10T18:28:17.238Z,93976.78
2023-03-10T18:31:23.399Z,93974.91
2023-03-10T18:34:27.446Z,93965.31
2023-03-10T18:37:34.226Z,93954.97
2023-03-10T18:40:38.197Z,93953.34
2023-03-10T18:43:41.375Z,93968.09
2023-03-10T18:46:44.595Z,93948.69
2023-03-10T18:49:49.349Z,93945.13
2023-03-10T18:52:53.043Z,93954.94
2023-03-10T18:55:56.792Z,93968.06
2023-03-10T18:59:00.533Z,93962.66
2023-03-10T19:02:04.463Z,93956.13
2023-03-10T19:05:09.486Z,93961.00
2023-03-10T19:08:12.717Z,93957.00
2023-03-10T19:11:15.890Z,93962.16
2023-03-10T19:14:19.020Z,93980.41
2023-03-10T19:17:22.591Z,93966.59
2023-03-10T19:20:25.750Z,93972.00
2023-03-10T19:23:29.665Z,93981.41
2023-03-10T19:26:33.704Z,93988.88
2023-03-10T19:29:37.323Z,93995.69
2023-03-10T19:32:41.351Z,94006.88
2023-03-10T19:35:45.776Z,94008.78
2023-03-10T19:38:48.777Z,94019.34
2023-03-10T19:41:52.832Z,94025.59
2023-03-10T19:44:56.651Z,94021.03
2023-03-10T19:48:00.741Z,94034.84
2023-03-10T19:51:06.056Z,94033.69
2023-03-10T19:54:09.521Z,94032.81
2023-03-10T19:57:14.213Z,94039.34
2023-03-10T20:00:22.476Z,94037.50
2023-03-10T20:03:30.541Z,94029.50
2023-03-10T20:06:35.028Z,94034.00
2023-03-10T20:09:38.677Z,94034.53
2023-03-10T20:12:42.342Z,94028.22
2023-03-10T20:15:45.353Z,94028.16
2023-03-10T20:18:48.595Z,94025.28
2023-03-10T20:21:52.593Z,94017.38
2023-03-10T20:24:57.257Z,94019.03
2023-03-10T20:28:00.200Z,94024.63
2023-03-10T20:31:04.238Z,94012.44
2023-03-10T20:34:07.842Z,94025.31
2023-03-10T20:37:11.940Z,94021.75
2023-03-10T20:40:22.954Z,94025.94
2023-03-10T20:43:26.542Z,94027.28
2023-03-10T20:46:29.953Z,94026.78
2023-03-10T20:49:34.037Z,94026.31
2023-03-10T20:52:40.364Z,94038.00
2023-03-10T20:55:44.483Z,94045.47
2023-03-10T20:58:47.469Z,94045.38
2023-03-10T21:01:51.023Z,94044.69
2023-03-10T21:04:53.890Z,94039.59
2023-03-10T21:07:59.169Z,94047.50
2023-03-10T21:11:02.246Z,94052.16
2023-03-10T21:14:05.522Z,94038.56
2023-03-10T21:17:08.988Z,94061.66
2023-03-10T21:20:16.009Z,94056.28
2023-03-10T21:23:19.727Z,94066.50
2023-03-10T21:26:23.404Z,94058.22
2023-03-10T21:29:26.236Z,94062.53
2023-03-10T21:32:30.076Z,94064.69
2023-03-10T21:35:37.417Z,94059.59
2023-03-10T21:38:40.474Z,94061.25
2023-03-10T21:41:43.909Z,94059.03
2023-03-10T21:44:49.013Z,94061.47
2023-03-10T21:47:52.750Z,94048.63
2023-03-10T21:50:56.839Z,94047.38
2023-03-10T21:54:00.576Z,94036.09
2023-03-10T21:57:04.687Z,94049.97
2023-03-10T22:00:10.049Z,94057.88
2023-03-10T22:03:14.044Z,94065.28
2023-03-10T22:06:17.338Z,94083.56
2023-03-10T22:09:21.657Z,94077.72
2023-03-10T22:12:24.667Z,94074.34
2023-03-10T22:15:28.434Z,94080.28
2023-03-10T22:18:32.026Z,94079.47
2023-03-10T22:21:35.360Z,94076.47
2023-03-10T22:24:39.094Z,94084.63
2023-03-10T22:27:45.733Z,94079.47
2023-03-10T22:30:49.441Z,94078.13
2023-03-10T22:33:53.132Z,94076.22
2023-03-10T22:36:56.106Z,94079.06
2023-03-10T22:40:00.173Z,94069.84
2023-03-10T22:43:04.104Z,94090.91
2023-03-10T22:46:16.004Z,94098.91
2023-03-10T22:49:20.059Z,94104.91
2023-03-10T22:52:23.888Z,94119.91
2023-03-10T22:55:29.225Z,94118.06
2023-03-10T22:58:33.125Z,94116.84
2023-03-10T23:01:36.896Z,94124.19
2023-03-10T23:04:40.370Z,94128.28
2023-03-10T23:07:45.040Z,94128.97
2023-03-10T23:10:48.825Z,94144.41
2023-03-10T23:13:52.453Z,94145.69
2023-03-10T23:16:56.151Z,94130.38
2023-03-10T23:19:59.918Z,94134.91
2023-03-10T23:23:06.338Z,94146.81
2023-03-10T23:26:12.074Z,94139.63
2023-03-10T23:29:14.983Z,94141.91
2023-03-10T23:32:18.022Z,94160.09
2023-03-10T23:35:24.296Z,94156.91
2023-03-10T23:38:28.672Z,94165.09
2023-03-10T23:41:32.269Z,94157.69
2023-03-10T23:44:36.036Z,94172.75
2023-03-10T23:47:40.486Z,94174.69
2023-03-10T23:50:46.429Z,94184.13
2023-03-10T23:53:50.207Z,94197.53
2023-03-10T23:56:53.594Z,94194.03
2023-03-10T23:59:56.598Z,94209.34
